BZRK1: S Cottonwood River nr Bazarr KS

                                SHEF ID:       BZRK1     SF COTTONWOOD R NR BAZAAR, KS
STATION TYPE:

PRECIP PRECIP(A) STAGE RIV-FLOW BAT-LOAD
in in ft cfs volt
Ccp-Rev Ccp-Rev Ccp-Rev Ccp-Rev Ccp-Rev
(America/Chicago)
06/21 00:00 0.00 ---- 8.90 234 12.27
06/21 01:00 0.00 ---- 8.87 230 12.25
06/21 02:00 0.00 ---- 8.86 229 12.25
06/21 03:00 0.00 ---- 8.84 227 12.24
06/21 04:00 0.00 ---- 8.84 227 12.24
06/21 05:00 0.00 ---- 8.83 225 12.23
06/21 06:00 0.00 ---- 8.82 224 12.23
06/21 07:00 0.00 ---- 8.81 223 12.24
06/21 08:00 0.00 ---- 8.81 223 12.37
06/21 09:00 0.00 ---- 8.80 221 12.76
06/21 10:00 0.00 ---- 8.79 220 13.35
06/21 11:00 0.00 ---- 8.78 219 13.29
06/21 12:00 0.00 ---- 8.76 216 13.26
06/21 13:00 0.00 ---- 8.75 215 13.23
06/21 14:00 0.00 ---- 8.74 214 13.22
06/21 15:00 0.00 ---- 8.72 211 13.19
06/21 16:00 0.00 ---- 8.72 211 13.13
06/21 17:00 0.00 ---- 8.71 210 13.10
06/21 18:00 0.00 ---- 8.67 205 13.16
06/21 19:00 0.00 ---- 8.66 204 13.19
06/21 20:00 0.00 ---- 8.65 203 12.86
06/21 21:00 0.00 ---- 8.63 200 12.47
06/21 22:00 0.00 ---- 8.62 199 12.31
06/21 23:00 0.00 ---- 8.60 197 12.27
Data processed at Sun 22Jun2025 04:44 GMT

Parsing this webpage?

Checkout our new Data API! CWMSDataAPI (CDA)

Timeseries IDs (TSIDs)

TSIDs used from left to right in the data table
BAZA.Precip-Inc.Total.1Hour.1Hour.Ccp-Rev
BAZA.Precip-Inc Alt.Total.1Hour.1Hour.Ccp-Rev
BAZA.Stage.Inst.1Hour.0.Ccp-Rev
BAZA.Flow.Inst.1Hour.0.Ccp-Rev
BAZA.Volt-Battery Load.Inst.1Hour.0.Ccp-Rev

                            

All information presented herein is the property of the government of the United States of America and may be revised or deleted at any time without prior notice. Dissemination of this information without the expressed written consent of the Public Affairs Office, Tulsa District U.S. Army Corps of Engineers is strictly prohibited. These data are gathered electronically and, as presented, have NOT undergone any form of quality control. These data are NOT guaranteed to be valid or correct.